Terminal Aerodrome Forecast
Issued by NWS

Home | Current Version | Previous Version | Text Only | Print | Product List | Glossary On
Versions: 1 2 3 4 5 6 7 8 9 10 11 12 13 14 15 16 17 18
177
FTUS43 KIWX 041403 AAA
TAFSBN
TAF AMD
KSBN 041403Z 0414/0512 33016G26KT P6SM OVC005
     FM041700 34020G30KT P6SM OVC010
     FM050200 34013G22KT P6SM OVC012=

USA.gov is the U.S. government's official web portal to all federal, state and local government web resources and services.